createdAt,value
2017-12-27T00:01:53.796Z,2.92
2017-12-27T00:04:27.490Z,2.92
2017-12-27T00:07:01.920Z,2.53
2017-12-27T00:09:35.641Z,2.87
2017-12-27T00:12:09.444Z,2.50
2017-12-27T00:14:43.297Z,3.87
2017-12-27T00:17:17.023Z,3.33
2017-12-27T00:19:50.750Z,2.65
2017-12-27T00:22:24.445Z,2.47
2017-12-27T00:24:58.281Z,2.65
2017-12-27T00:27:31.973Z,3.75
2017-12-27T00:30:05.718Z,3.10
2017-12-27T00:32:33.349Z,2.83
2017-12-27T00:35:01.497Z,2.97
2017-12-27T00:37:30.386Z,2.47
2017-12-27T00:39:58.549Z,2.33
2017-12-27T00:42:27.436Z,2.70
2017-12-27T00:44:55.569Z,2.30
2017-12-27T00:47:23.720Z,2.87
2017-12-27T00:49:51.856Z,2.17
2017-12-27T00:52:20.009Z,1.92
2017-12-27T00:54:48.129Z,1.90
2017-12-27T00:57:16.280Z,2.10
2017-12-27T00:59:45.164Z,1.98
2017-12-27T01:02:13.313Z,2.50
2017-12-27T01:04:41.438Z,2.10
2017-12-27T01:07:09.589Z,2.72
2017-12-27T01:09:37.713Z,2.45
2017-12-27T01:12:05.901Z,2.85
2017-12-27T01:14:34.024Z,2.58
2017-12-27T01:17:02.173Z,2.33
2017-12-27T01:19:30.297Z,2.03
2017-12-27T01:21:58.453Z,2.15
2017-12-27T01:24:26.577Z,2.00
2017-12-27T01:26:54.742Z,2.17
2017-12-27T01:29:22.865Z,2.65
2017-12-27T01:31:51.001Z,2.40
2017-12-27T01:34:19.128Z,2.15
2017-12-27T01:36:47.276Z,2.37
2017-12-27T01:39:16.168Z,1.92
2017-12-27T01:41:44.319Z,2.15
2017-12-27T01:44:12.444Z,1.98
2017-12-27T01:46:40.588Z,1.70
2017-12-27T01:49:08.713Z,2.05
2017-12-27T01:51:36.870Z,2.15
2017-12-27T01:54:04.994Z,2.15
2017-12-27T01:56:33.913Z,2.08
2017-12-27T01:59:02.038Z,1.90
2017-12-27T02:01:30.196Z,2.15
2017-12-27T02:03:58.322Z,1.90
2017-12-27T02:06:26.449Z,2.00
2017-12-27T02:08:54.597Z,1.80
2017-12-27T02:11:22.715Z,2.10
2017-12-27T02:13:50.880Z,2.62
2017-12-27T02:16:19.005Z,2.25
2017-12-27T02:18:47.158Z,2.28
2017-12-27T02:21:15.301Z,2.37
2017-12-27T02:23:43.452Z,1.70
2017-12-27T02:26:11.578Z,2.05
2017-12-27T02:28:39.725Z,1.80
2017-12-27T02:31:07.859Z,1.80
2017-12-27T02:33:36.002Z,2.15
2017-12-27T02:36:04.129Z,1.70
2017-12-27T02:38:44.126Z,1.90
2017-12-27T02:41:12.254Z,1.80
2017-12-27T02:43:40.398Z,2.05
2017-12-27T02:46:08.516Z,1.65
2017-12-27T02:48:36.670Z,1.52
2017-12-27T02:51:04.793Z,1.85
2017-12-27T02:53:32.946Z,1.70
2017-12-27T02:56:01.075Z,1.50
2017-12-27T02:58:29.221Z,1.65
2017-12-27T03:00:57.350Z,2.30
2017-12-27T03:03:25.493Z,1.83
2017-12-27T03:05:53.613Z,2.30
2017-12-27T03:08:21.769Z,2.35
2017-12-27T03:10:49.887Z,1.60
2017-12-27T03:13:18.040Z,1.95
2017-12-27T03:15:46.921Z,1.30
2017-12-27T03:18:15.068Z,1.77
2017-12-27T03:20:43.192Z,2.15
2017-12-27T03:23:11.345Z,1.48
2017-12-27T03:25:39.464Z,2.25
2017-12-27T03:28:07.618Z,1.85
2017-12-27T03:30:35.737Z,2.40
2017-12-27T03:33:03.892Z,1.83
2017-12-27T03:35:32.018Z,2.20
2017-12-27T03:38:00.165Z,2.17
2017-12-27T03:40:28.288Z,2.55
2017-12-27T03:42:56.470Z,2.75
2017-12-27T03:45:24.589Z,2.78
2017-12-27T03:47:52.744Z,2.83
2017-12-27T03:50:20.863Z,2.37
2017-12-27T03:52:49.009Z,3.47
2017-12-27T03:55:17.139Z,3.62
2017-12-27T03:57:45.287Z,3.70
2017-12-27T04:00:13.410Z,3.42
2017-12-27T04:02:41.562Z,2.25
2017-12-27T04:05:09.683Z,3.50
2017-12-27T04:07:38.602Z,3.47
2017-12-27T04:10:06.721Z,4.20
2017-12-27T04:12:34.874Z,2.70
2017-12-27T04:15:03.001Z,4.03
2017-12-27T04:17:31.145Z,3.10
2017-12-27T04:19:59.263Z,3.60
2017-12-27T04:22:27.418Z,3.45
2017-12-27T04:24:56.304Z,3.95
2017-12-27T04:27:24.457Z,3.90
2017-12-27T04:29:52.584Z,3.00
2017-12-27T04:32:20.708Z,3.85
2017-12-27T04:34:48.860Z,3.62
2017-12-27T04:37:16.990Z,5.10
2017-12-27T04:39:45.136Z,4.03
2017-12-27T04:42:13.264Z,3.50
2017-12-27T04:44:41.412Z,3.40
2017-12-27T04:47:09.535Z,4.32
2017-12-27T04:49:37.676Z,4.30
2017-12-27T04:52:05.805Z,4.25
2017-12-27T04:54:33.958Z,4.00
2017-12-27T04:57:02.084Z,4.32
2017-12-27T04:59:30.234Z,4.55
2017-12-27T05:01:58.353Z,3.72
2017-12-27T05:04:26.507Z,4.07
2017-12-27T05:06:54.638Z,3.70
2017-12-27T05:09:22.785Z,4.43
2017-12-27T05:11:50.909Z,3.67
2017-12-27T05:14:19.052Z,3.20
2017-12-27T05:16:47.176Z,3.75
2017-12-27T05:19:15.321Z,4.03
2017-12-27T05:21:43.449Z,3.47
2017-12-27T05:24:11.607Z,3.37
2017-12-27T05:26:39.724Z,3.25
2017-12-27T05:29:07.873Z,3.08
2017-12-27T05:31:35.998Z,2.95
2017-12-27T05:34:04.150Z,4.50
2017-12-27T05:36:32.272Z,3.53
2017-12-27T05:39:00.425Z,3.05
2017-12-27T05:41:28.601Z,3.20
2017-12-27T05:43:56.721Z,3.33
2017-12-27T05:46:24.850Z,3.03
2017-12-27T05:48:52.992Z,3.10
2017-12-27T05:51:21.884Z,3.83
2017-12-27T05:53:50.042Z,3.20
2017-12-27T05:56:18.171Z,4.05
2017-12-27T05:58:46.314Z,3.35
2017-12-27T06:01:14.428Z,4.90
2017-12-27T06:03:42.572Z,3.40
2017-12-27T06:06:10.699Z,3.22
2017-12-27T06:08:38.844Z,3.42
2017-12-27T06:11:06.973Z,3.40
2017-12-27T06:13:35.119Z,3.72
2017-12-27T06:16:03.241Z,3.45
2017-12-27T06:18:31.393Z,3.47
2017-12-27T06:21:00.277Z,4.15
2017-12-27T06:23:28.430Z,3.87
2017-12-27T06:25:56.550Z,3.55
2017-12-27T06:28:24.708Z,3.70
2017-12-27T06:30:52.824Z,4.00
2017-12-27T06:33:20.986Z,3.87
2017-12-27T06:35:49.114Z,3.75
2017-12-27T06:38:17.234Z,3.53
2017-12-27T06:40:45.381Z,4.15
2017-12-27T06:43:13.510Z,3.70
2017-12-27T06:45:41.662Z,3.20
2017-12-27T06:48:09.788Z,3.97
2017-12-27T06:50:38.701Z,4.05
2017-12-27T06:53:06.822Z,3.67
2017-12-27T06:55:34.971Z,3.75
2017-12-27T06:58:03.089Z,3.65
2017-12-27T07:00:31.237Z,3.25
2017-12-27T07:02:59.370Z,3.47
2017-12-27T07:05:27.530Z,3.30
2017-12-27T07:07:55.648Z,3.70
2017-12-27T07:10:23.791Z,3.95
2017-12-27T07:12:51.921Z,3.75
2017-12-27T07:15:20.075Z,3.33
2017-12-27T07:17:48.198Z,3.37
2017-12-27T07:20:16.351Z,3.55
2017-12-27T07:22:44.534Z,3.45
2017-12-27T07:25:12.684Z,3.47
2017-12-27T07:27:40.807Z,3.60
2017-12-27T07:30:08.960Z,5.50
2017-12-27T07:32:37.086Z,13.02
2017-12-27T07:35:05.240Z,14.63
2017-12-27T07:37:33.372Z,13.70
2017-12-27T07:40:02.292Z,13.90
2017-12-27T07:42:30.420Z,5.87
2017-12-27T07:44:58.575Z,5.60
2017-12-27T07:47:26.705Z,4.50
2017-12-27T07:49:54.848Z,5.35
2017-12-27T07:52:22.997Z,5.03
2017-12-27T07:54:51.154Z,4.72
2017-12-27T07:57:19.276Z,3.87
2017-12-27T07:59:47.450Z,5.28
2017-12-27T08:02:15.574Z,5.47
2017-12-27T08:04:43.725Z,5.25
2017-12-27T08:07:11.858Z,2.85
2017-12-27T08:09:40.013Z,2.95
2017-12-27T08:12:08.148Z,3.42
2017-12-27T08:14:36.285Z,3.25
2017-12-27T08:17:05.220Z,3.22
2017-12-27T08:19:33.373Z,2.83
2017-12-27T08:22:01.493Z,3.33
2017-12-27T08:24:29.640Z,4.00
2017-12-27T08:26:57.769Z,4.57
2017-12-27T08:29:25.927Z,3.12
2017-12-27T08:31:54.046Z,3.70
2017-12-27T08:34:22.197Z,3.20
2017-12-27T08:36:50.326Z,3.00
2017-12-27T08:39:18.473Z,2.50
2017-12-27T08:41:46.599Z,3.05
2017-12-27T08:44:14.770Z,3.08
2017-12-27T08:46:42.909Z,3.12
2017-12-27T08:49:11.059Z,2.20
2017-12-27T08:51:40.084Z,2.33
2017-12-27T08:54:08.218Z,2.17
2017-12-27T08:56:36.373Z,2.62
2017-12-27T08:59:04.489Z,2.40
2017-12-27T09:01:32.643Z,2.42
2017-12-27T09:04:00.775Z,2.30
2017-12-27T09:06:28.925Z,2.10
2017-12-27T09:08:57.049Z,2.97
2017-12-27T09:11:25.196Z,1.90
2017-12-27T09:13:53.317Z,2.55
2017-12-27T09:16:21.604Z,2.30
2017-12-27T09:18:49.736Z,2.37
2017-12-27T09:21:17.876Z,2.60
2017-12-27T09:23:45.997Z,2.08
2017-12-27T09:26:14.150Z,2.60
2017-12-27T09:28:42.273Z,2.70
2017-12-27T09:31:10.424Z,2.80
2017-12-27T09:33:39.317Z,2.25
2017-12-27T09:36:07.493Z,2.05
2017-12-27T09:38:35.621Z,2.12
2017-12-27T09:41:03.768Z,1.98
2017-12-27T09:43:31.884Z,2.00
2017-12-27T09:46:00.039Z,1.55
2017-12-27T09:48:28.156Z,2.17
2017-12-27T09:50:56.321Z,1.60
2017-12-27T09:53:24.455Z,1.60
2017-12-27T09:55:52.606Z,0.65
2017-12-27T09:58:20.737Z,1.70
2017-12-27T10:00:48.889Z,1.30
2017-12-27T10:03:17.790Z,1.42
2017-12-27T10:05:45.941Z,1.25
2017-12-27T10:08:14.067Z,1.75
2017-12-27T10:10:42.219Z,1.48
2017-12-27T10:13:10.541Z,1.75
2017-12-27T10:15:38.789Z,1.10
2017-12-27T10:18:06.994Z,1.70
2017-12-27T10:20:35.145Z,1.08
2017-12-27T10:23:03.269Z,1.25
2017-12-27T10:25:31.495Z,1.20
2017-12-27T10:27:59.635Z,1.20
2017-12-27T10:30:27.807Z,1.48
2017-12-27T10:32:59.851Z,1.50
2017-12-27T10:35:28.001Z,1.12
2017-12-27T10:37:56.153Z,1.50
2017-12-27T10:40:24.378Z,1.65
2017-12-27T10:42:52.502Z,1.70
2017-12-27T10:45:20.653Z,1.58
2017-12-27T10:47:48.772Z,1.90
2017-12-27T10:50:16.933Z,1.55
2017-12-27T10:52:45.055Z,1.85
2017-12-27T10:55:13.201Z,2.45
2017-12-27T10:57:41.325Z,1.92
2017-12-27T11:00:09.476Z,2.20
2017-12-27T11:02:37.598Z,1.73
2017-12-27T11:05:05.750Z,1.80
2017-12-27T11:07:33.878Z,1.55
2017-12-27T11:10:02.033Z,1.33
2017-12-27T11:12:30.164Z,1.12
2017-12-27T11:14:58.311Z,1.67
2017-12-27T11:17:27.206Z,1.45
2017-12-27T11:19:55.357Z,2.00
2017-12-27T11:22:23.474Z,2.08
2017-12-27T11:24:51.626Z,1.77
2017-12-27T11:27:20.545Z,1.30
2017-12-27T11:29:48.680Z,1.35
2017-12-27T11:32:17.592Z,1.50
2017-12-27T11:34:45.718Z,2.33
2017-12-27T11:37:13.873Z,2.87
2017-12-27T11:39:42.001Z,1.55
2017-12-27T11:42:10.158Z,1.58
2017-12-27T11:44:38.277Z,1.85
2017-12-27T11:47:06.438Z,2.35
2017-12-27T11:49:34.570Z,1.98
2017-12-27T11:52:02.717Z,1.58
2017-12-27T11:54:30.846Z,2.65
2017-12-27T11:56:58.992Z,2.10
2017-12-27T11:59:27.112Z,2.60
2017-12-27T12:01:55.278Z,2.83
2017-12-27T12:04:23.404Z,2.87
2017-12-27T12:06:51.550Z,2.90
2017-12-27T12:09:19.678Z,4.57
2017-12-27T12:11:47.889Z,3.40
2017-12-27T12:14:15.994Z,3.05
2017-12-27T12:16:44.141Z,2.70
2017-12-27T12:19:12.266Z,3.25
2017-12-27T12:21:41.196Z,3.08
2017-12-27T12:24:09.321Z,3.35
2017-12-27T12:26:38.236Z,3.40
2017-12-27T12:29:06.357Z,3.15
2017-12-27T12:31:34.529Z,2.33
2017-12-27T12:34:02.656Z,2.00
2017-12-27T12:36:30.807Z,2.47
2017-12-27T12:38:59.705Z,1.62
2017-12-27T12:41:27.869Z,3.25
2017-12-27T12:43:56.021Z,2.10
2017-12-27T12:46:24.190Z,2.10
2017-12-27T12:48:52.330Z,2.20
2017-12-27T12:51:21.310Z,1.92
2017-12-27T12:53:49.437Z,2.10
2017-12-27T12:56:17.593Z,2.53
2017-12-27T12:58:45.714Z,1.85
2017-12-27T13:01:14.638Z,2.30
2017-12-27T13:03:42.768Z,2.15
2017-12-27T13:06:10.929Z,2.42
2017-12-27T13:08:39.054Z,2.47
2017-12-27T13:11:07.207Z,2.80
2017-12-27T13:13:35.333Z,2.72
2017-12-27T13:16:03.496Z,2.35
2017-12-27T13:18:31.620Z,2.15
2017-12-27T13:20:59.767Z,2.92
2017-12-27T13:23:27.889Z,3.60
2017-12-27T13:25:56.039Z,2.53
2017-12-27T13:28:24.930Z,3.60
2017-12-27T13:30:53.849Z,3.25
2017-12-27T13:33:21.972Z,4.22
2017-12-27T13:35:50.124Z,3.45
2017-12-27T13:38:18.251Z,2.47
2017-12-27T13:40:46.405Z,3.95
2017-12-27T13:43:14.522Z,3.47
2017-12-27T13:45:42.674Z,4.15
2017-12-27T13:48:10.801Z,3.60
2017-12-27T13:50:38.959Z,3.75
2017-12-27T13:53:07.074Z,3.95
2017-12-27T13:55:35.220Z,4.43
2017-12-27T13:58:03.354Z,4.00
2017-12-27T14:00:31.489Z,3.58
2017-12-27T14:03:00.405Z,3.85
2017-12-27T14:05:28.563Z,4.30
2017-12-27T14:07:57.477Z,3.87
2017-12-27T14:10:25.593Z,4.10
2017-12-27T14:12:53.745Z,4.62
2017-12-27T14:15:21.862Z,3.85
2017-12-27T14:17:50.022Z,4.68
2017-12-27T14:20:18.149Z,3.72
2017-12-27T14:22:46.296Z,4.12
2017-12-27T14:25:14.427Z,4.32
2017-12-27T14:27:42.573Z,4.97
2017-12-27T14:30:10.699Z,4.03
2017-12-27T14:32:38.853Z,4.15
2017-12-27T14:35:06.973Z,4.65
2017-12-27T14:37:35.120Z,4.93
2017-12-27T14:40:03.242Z,4.75
2017-12-27T14:42:31.390Z,5.50
2017-12-27T14:44:59.536Z,4.65
2017-12-27T14:47:27.682Z,4.80
2017-12-27T14:49:55.809Z,5.03
2017-12-27T14:52:23.962Z,5.12
2017-12-27T14:54:52.081Z,5.60
2017-12-27T14:57:20.240Z,5.70
2017-12-27T14:59:48.361Z,5.85
2017-12-27T15:02:16.519Z,5.43
2017-12-27T15:04:44.650Z,5.22
2017-12-27T15:07:12.793Z,4.43
2017-12-27T15:09:40.929Z,10.70
2017-12-27T15:12:09.085Z,6.93
2017-12-27T15:14:37.208Z,4.57
2017-12-27T15:17:05.355Z,4.80
2017-12-27T15:19:33.481Z,7.60
2017-12-27T15:22:01.636Z,5.32
2017-12-27T15:24:29.756Z,4.87
2017-12-27T15:26:57.918Z,4.80
2017-12-27T15:29:26.038Z,5.47
2017-12-27T15:31:54.188Z,5.87
2017-12-27T15:34:22.313Z,5.15
2017-12-27T15:36:51.223Z,4.85
2017-12-27T15:39:19.352Z,5.87
2017-12-27T15:41:47.514Z,5.10
2017-12-27T15:44:15.642Z,5.45
2017-12-27T15:46:43.802Z,5.10
2017-12-27T15:49:12.711Z,5.90
2017-12-27T15:51:40.864Z,5.60
2017-12-27T15:54:09.765Z,6.15
2017-12-27T15:56:37.948Z,5.35
2017-12-27T15:59:06.174Z,5.12
2017-12-27T16:01:34.324Z,5.47
2017-12-27T16:04:02.462Z,5.62
2017-12-27T16:06:30.644Z,5.03
2017-12-27T16:08:58.821Z,5.57
2017-12-27T16:11:27.021Z,5.15
2017-12-27T16:13:55.187Z,5.20
2017-12-27T16:16:23.332Z,6.12
2017-12-27T16:18:51.503Z,5.95
2017-12-27T16:21:19.640Z,5.45
2017-12-27T16:23:47.794Z,7.57
2017-12-27T16:26:15.909Z,8.63
2017-12-27T16:28:44.077Z,6.22
2017-12-27T16:31:12.979Z,9.98
2017-12-27T16:33:41.129Z,7.78
2017-12-27T16:36:09.259Z,6.87
2017-12-27T16:38:37.488Z,8.52
2017-12-27T16:41:05.639Z,6.95
2017-12-27T16:43:33.793Z,7.72
2017-12-27T16:46:01.928Z,6.12
2017-12-27T16:48:30.069Z,6.22
2017-12-27T16:50:58.207Z,6.45
2017-12-27T16:53:26.409Z,6.57
2017-12-27T16:55:54.530Z,5.45
2017-12-27T16:58:22.676Z,5.60
2017-12-27T17:00:51.583Z,6.30
2017-12-27T17:03:19.728Z,6.78
2017-12-27T17:05:47.858Z,5.97
2017-12-27T17:08:16.785Z,6.25
2017-12-27T17:10:44.910Z,6.43
2017-12-27T17:13:13.125Z,5.80
2017-12-27T17:15:41.252Z,5.18
2017-12-27T17:18:09.418Z,6.10
2017-12-27T17:20:37.572Z,6.35
2017-12-27T17:23:06.504Z,5.78
2017-12-27T17:25:34.755Z,6.55
2017-12-27T17:28:02.912Z,5.57
2017-12-27T17:30:31.053Z,7.65
2017-12-27T17:32:59.306Z,8.25
2017-12-27T17:35:27.871Z,7.22
2017-12-27T17:37:56.142Z,6.35
2017-12-27T17:40:24.266Z,5.95
2017-12-27T17:42:52.706Z,6.30
2017-12-27T17:45:20.908Z,6.28
2017-12-27T17:47:49.086Z,7.18
2017-12-27T17:50:17.394Z,5.95
2017-12-27T17:52:45.575Z,6.87
2017-12-27T17:55:14.572Z,7.05
2017-12-27T17:57:43.501Z,6.72
2017-12-27T18:00:11.639Z,6.65
2017-12-27T18:02:40.802Z,6.95
2017-12-27T18:05:09.140Z,6.60
2017-12-27T18:07:37.568Z,6.80
2017-12-27T18:10:06.127Z,6.80
2017-12-27T18:12:34.666Z,6.15
2017-12-27T18:15:03.115Z,5.93
2017-12-27T18:17:31.537Z,5.65
2017-12-27T18:19:59.752Z,6.55
2017-12-27T18:22:27.921Z,6.68
2017-12-27T18:24:56.469Z,7.57
2017-12-27T18:27:24.664Z,5.85
2017-12-27T18:29:52.907Z,6.30
2017-12-27T18:32:21.081Z,7.22
2017-12-27T18:34:49.473Z,6.85
2017-12-27T18:37:18.127Z,8.35
2017-12-27T18:39:47.133Z,6.47
2017-12-27T18:42:16.179Z,7.65
2017-12-27T18:44:44.429Z,8.65
2017-12-27T18:47:12.600Z,7.93
2017-12-27T18:49:40.807Z,8.88
2017-12-27T18:52:08.925Z,7.22
2017-12-27T18:54:37.110Z,6.85
2017-12-27T18:57:05.236Z,7.70
2017-12-27T18:59:33.389Z,6.57
2017-12-27T19:02:01.535Z,7.95
2017-12-27T19:04:29.750Z,7.35
2017-12-27T19:06:57.881Z,7.53
2017-12-27T19:09:26.120Z,7.72
2017-12-27T19:11:54.247Z,7.85
2017-12-27T19:14:22.418Z,8.23
2017-12-27T19:16:50.572Z,8.32
2017-12-27T19:19:19.499Z,7.68
2017-12-27T19:21:47.622Z,7.75
2017-12-27T19:24:15.786Z,8.00
2017-12-27T19:26:43.908Z,7.10
2017-12-27T19:29:12.114Z,7.32
2017-12-27T19:31:40.236Z,7.12
2017-12-27T19:34:08.381Z,7.43
2017-12-27T19:36:36.501Z,8.48
2017-12-27T19:39:04.666Z,7.62
2017-12-27T19:41:32.804Z,7.22
2017-12-27T19:44:00.959Z,8.73
2017-12-27T19:46:29.088Z,8.00
2017-12-27T19:48:57.239Z,9.30
2017-12-27T19:51:26.129Z,8.60
2017-12-27T19:53:54.297Z,8.30
2017-12-27T19:56:23.200Z,9.00
2017-12-27T19:58:51.334Z,9.57
2017-12-27T20:01:19.499Z,9.20
2017-12-27T20:03:47.636Z,8.88
2017-12-27T20:06:15.786Z,8.00
2017-12-27T20:08:43.897Z,9.07
2017-12-27T20:11:12.065Z,8.57
2017-12-27T20:13:40.184Z,9.25
2017-12-27T20:16:08.336Z,7.75
2017-12-27T20:18:36.469Z,9.65
2017-12-27T20:21:04.625Z,10.32
2017-12-27T20:23:33.594Z,10.95
2017-12-27T20:26:01.796Z,9.25
2017-12-27T20:28:29.964Z,10.38
2017-12-27T20:30:58.099Z,9.75
2017-12-27T20:33:26.273Z,11.55
2017-12-27T20:35:54.402Z,11.73
2017-12-27T20:38:22.584Z,11.55
2017-12-27T20:40:50.739Z,11.18
2017-12-27T20:43:19.745Z,11.95
2017-12-27T20:45:48.623Z,11.50
2017-12-27T20:48:16.872Z,9.70
2017-12-27T20:50:45.019Z,11.90
2017-12-27T20:53:13.184Z,11.35
2017-12-27T20:55:41.332Z,9.85
2017-12-27T20:58:09.509Z,10.88
2017-12-27T21:00:37.650Z,11.32
2017-12-27T21:03:06.226Z,10.90
2017-12-27T21:05:34.395Z,11.77
2017-12-27T21:08:02.529Z,11.85
2017-12-27T21:10:30.680Z,10.73
2017-12-27T21:12:58.812Z,12.65
2017-12-27T21:15:27.083Z,13.25
2017-12-27T21:17:55.234Z,12.80
2017-12-27T21:20:23.395Z,12.68
2017-12-27T21:22:51.537Z,12.40
2017-12-27T21:25:20.478Z,12.35
2017-12-27T21:27:48.707Z,12.30
2017-12-27T21:30:16.876Z,12.65
2017-12-27T21:32:45.011Z,11.90
2017-12-27T21:35:13.168Z,12.07
2017-12-27T21:37:41.305Z,13.07
2017-12-27T21:40:09.470Z,13.35
2017-12-27T21:42:37.623Z,11.57
2017-12-27T21:45:05.776Z,10.75
2017-12-27T21:47:39.526Z,12.40
2017-12-27T21:50:07.802Z,13.07
2017-12-27T21:52:35.945Z,11.12
2017-12-27T21:55:04.108Z,11.30
2017-12-27T21:57:32.241Z,13.35
2017-12-27T22:00:06.083Z,11.60
2017-12-27T22:02:34.242Z,12.32
2017-12-27T22:05:02.432Z,12.80
2017-12-27T22:07:30.574Z,14.13
2017-12-27T22:09:58.733Z,12.75
2017-12-27T22:12:26.976Z,12.85
2017-12-27T22:14:55.142Z,11.75
2017-12-27T22:17:23.306Z,12.20
2017-12-27T22:19:51.480Z,12.65
2017-12-27T22:22:19.609Z,13.93
2017-12-27T22:24:47.820Z,12.20
2017-12-27T22:27:15.960Z,12.70
2017-12-27T22:29:44.142Z,11.93
2017-12-27T22:32:12.341Z,13.27
2017-12-27T22:34:40.520Z,13.20
2017-12-27T22:37:08.648Z,13.18
2017-12-27T22:39:36.807Z,12.65
2017-12-27T22:42:05.758Z,13.52
2017-12-27T22:44:33.960Z,13.50
2017-12-27T22:47:02.882Z,11.68
2017-12-27T22:49:31.034Z,13.30
2017-12-27T22:51:59.976Z,13.13
2017-12-27T22:54:28.133Z,12.37
2017-12-27T22:56:56.267Z,15.52
2017-12-27T22:59:24.397Z,16.83
2017-12-27T23:01:52.553Z,18.73
2017-12-27T23:04:20.684Z,19.48
2017-12-27T23:06:49.634Z,17.92
2017-12-27T23:09:17.785Z,16.50
2017-12-27T23:11:45.929Z,16.30
2017-12-27T23:14:14.121Z,14.25
2017-12-27T23:16:42.272Z,12.90
2017-12-27T23:19:11.172Z,11.90
2017-12-27T23:21:39.330Z,11.20
2017-12-27T23:24:07.480Z,14.10
2017-12-27T23:26:35.654Z,15.15
2017-12-27T23:29:03.818Z,15.60
2017-12-27T23:31:31.969Z,15.50
2017-12-27T23:34:00.105Z,15.65
2017-12-27T23:36:28.261Z,14.10
2017-12-27T23:38:56.383Z,14.52
2017-12-27T23:41:25.413Z,12.07
2017-12-27T23:43:53.544Z,13.80
2017-12-27T23:46:21.711Z,12.25
2017-12-27T23:48:49.838Z,12.93
2017-12-27T23:51:18.000Z,13.02
2017-12-27T23:53:46.142Z,12.30
2017-12-27T23:56:14.270Z,12.95
2017-12-27T23:58:42.433Z,12.25
